sensor_id;sensor_type;location;lat;lon;timestamp;pressure;altitude;pressure_sealevel;temperature;humidity
7594;BME280;3838;43.124;25.686;2024-02-04T00:02:01;99640.69;;;18.90;41.29
7594;BME280;3838;43.124;25.686;2024-02-04T00:04:29;99641.06;;;18.75;42.84
7594;BME280;3838;43.124;25.686;2024-02-04T00:06:54;99631.69;;;18.74;42.30
7594;BME280;3838;43.124;25.686;2024-02-04T00:09:20;99619.13;;;18.80;42.46
7594;BME280;3838;43.124;25.686;2024-02-04T00:11:45;99624.63;;;19.20;41.86
7594;BME280;3838;43.124;25.686;2024-02-04T00:14:11;99632.28;;;19.46;42.10
7594;BME280;3838;43.124;25.686;2024-02-04T00:16:37;99633.69;;;19.64;41.91
7594;BME280;3838;43.124;25.686;2024-02-04T00:19:02;99630.75;;;19.80;42.35
7594;BME280;3838;43.124;25.686;2024-02-04T00:21:27;99631.94;;;19.91;42.08
7594;BME280;3838;43.124;25.686;2024-02-04T00:23:53;99628.81;;;20.01;42.33
7594;BME280;3838;43.124;25.686;2024-02-04T00:26:18;99629.88;;;20.09;42.30
7594;BME280;3838;43.124;25.686;2024-02-04T00:28:44;99630.94;;;20.16;43.14
7594;BME280;3838;43.124;25.686;2024-02-04T00:31:09;99628.19;;;20.10;43.55
7594;BME280;3838;43.124;25.686;2024-02-04T00:33:34;99613.72;;;20.10;43.89
7594;BME280;3838;43.124;25.686;2024-02-04T00:36:00;99619.53;;;20.05;43.94
7594;BME280;3838;43.124;25.686;2024-02-04T00:38:26;99615.16;;;20.01;44.09
7594;BME280;3838;43.124;25.686;2024-02-04T00:40:51;99612.47;;;19.96;44.16
7594;BME280;3838;43.124;25.686;2024-02-04T00:43:18;99612.28;;;19.90;43.94
7594;BME280;3838;43.124;25.686;2024-02-04T00:45:43;99610.53;;;19.88;44.08
7594;BME280;3838;43.124;25.686;2024-02-04T00:48:08;99611.94;;;19.78;44.20
7594;BME280;3838;43.124;25.686;2024-02-04T00:50:34;99616.88;;;19.72;44.57
7594;BME280;3838;43.124;25.686;2024-02-04T00:52:59;99611.69;;;19.69;44.97
7594;BME280;3838;43.124;25.686;2024-02-04T00:55:25;99603.09;;;19.67;44.92
7594;BME280;3838;43.124;25.686;2024-02-04T00:57:50;99603.88;;;19.64;44.91
7594;BME280;3838;43.124;25.686;2024-02-04T01:00:16;99602.97;;;19.62;44.78
7594;BME280;3838;43.124;25.686;2024-02-04T01:02:41;99593.56;;;19.61;45.22
7594;BME280;3838;43.124;25.686;2024-02-04T01:05:07;99591.84;;;19.60;45.46
7594;BME280;3838;43.124;25.686;2024-02-04T01:07:33;99597.00;;;19.62;45.03
7594;BME280;3838;43.124;25.686;2024-02-04T01:09:58;99587.59;;;19.61;45.14
7594;BME280;3838;43.124;25.686;2024-02-04T01:12:23;99570.53;;;19.60;45.61
7594;BME280;3838;43.124;25.686;2024-02-04T01:14:49;99580.63;;;19.55;45.62
7594;BME280;3838;43.124;25.686;2024-02-04T01:17:14;99580.56;;;19.54;45.29
7594;BME280;3838;43.124;25.686;2024-02-04T01:19:40;99567.66;;;19.51;45.14
7594;BME280;3838;43.124;25.686;2024-02-04T01:22:05;99560.88;;;19.51;45.61
7594;BME280;3838;43.124;25.686;2024-02-04T01:24:31;99557.41;;;19.49;45.92
7594;BME280;3838;43.124;25.686;2024-02-04T01:26:57;99552.22;;;19.46;45.97
7594;BME280;3838;43.124;25.686;2024-02-04T01:29:22;99547.00;;;19.43;45.90
7594;BME280;3838;43.124;25.686;2024-02-04T01:31:48;99534.22;;;19.43;45.92
7594;BME280;3838;43.124;25.686;2024-02-04T01:34:13;99526.53;;;19.41;46.09
7594;BME280;3838;43.124;25.686;2024-02-04T01:36:38;99523.94;;;19.40;45.95
7594;BME280;3838;43.124;25.686;2024-02-04T01:39:04;99525.56;;;19.38;45.88
7594;BME280;3838;43.124;25.686;2024-02-04T01:41:30;99523.84;;;19.37;46.37
7594;BME280;3838;43.124;25.686;2024-02-04T01:43:56;99522.97;;;19.36;46.19
7594;BME280;3838;43.124;25.686;2024-02-04T01:46:21;99516.94;;;19.34;46.36
7594;BME280;3838;43.124;25.686;2024-02-04T01:48:47;99516.94;;;19.34;46.38
7594;BME280;3838;43.124;25.686;2024-02-04T01:51:16;99529.69;;;19.33;46.29
7594;BME280;3838;43.124;25.686;2024-02-04T01:53:44;99515.13;;;19.30;46.10
7594;BME280;3838;43.124;25.686;2024-02-04T01:56:12;99526.31;;;19.34;46.12
7594;BME280;3838;43.124;25.686;2024-02-04T01:58:38;99518.59;;;19.32;46.47
7594;BME280;3838;43.124;25.686;2024-02-04T02:01:04;99516.88;;;19.31;46.43
7594;BME280;3838;43.124;25.686;2024-02-04T02:03:31;99518.53;;;19.31;46.26
7594;BME280;3838;43.124;25.686;2024-02-04T02:05:57;99509.19;;;19.31;46.43
7594;BME280;3838;43.124;25.686;2024-02-04T02:08:23;99509.19;;;19.31;46.71
7594;BME280;3838;43.124;25.686;2024-02-04T02:10:48;99498.13;;;19.31;46.77
7594;BME280;3838;43.124;25.686;2024-02-04T02:13:25;99492.97;;;19.29;46.71
7594;BME280;3838;43.124;25.686;2024-02-04T02:15:58;99487.78;;;19.26;46.41
7594;BME280;3838;43.124;25.686;2024-02-04T02:18:54;99489.50;;;19.27;46.73
7594;BME280;3838;43.124;25.686;2024-02-04T02:26:47;99486.13;;;19.28;46.73
7594;BME280;3838;43.124;25.686;2024-02-04T02:29:13;99481.84;;;19.27;46.58
7594;BME280;3838;43.124;25.686;2024-02-04T02:31:38;99486.06;;;19.27;46.54
7594;BME280;3838;43.124;25.686;2024-02-04T02:34:06;99482.66;;;19.26;46.81
7594;BME280;3838;43.124;25.686;2024-02-04T02:36:44;99480.06;;;19.25;46.77
7594;BME280;3838;43.124;25.686;2024-02-04T02:39:26;99470.53;;;19.19;47.11
7594;BME280;3838;43.124;25.686;2024-02-04T02:41:55;99489.41;;;19.24;46.88
7594;BME280;3838;43.124;25.686;2024-02-04T02:44:26;99484.31;;;19.24;46.87
7594;BME280;3838;43.124;25.686;2024-02-04T02:46:54;99487.69;;;19.23;47.16
7594;BME280;3838;43.124;25.686;2024-02-04T02:49:21;99486.78;;;19.21;46.70
7594;BME280;3838;43.124;25.686;2024-02-04T02:51:46;99483.34;;;19.21;47.31
7594;BME280;3838;43.124;25.686;2024-02-04T02:54:11;99476.47;;;19.18;46.89
7594;BME280;3838;43.124;25.686;2024-02-04T02:56:37;99480.75;;;19.19;47.27
7594;BME280;3838;43.124;25.686;2024-02-04T02:59:03;99478.16;;;19.18;47.29
7594;BME280;3838;43.124;25.686;2024-02-04T03:01:29;99482.44;;;19.19;46.88
7594;BME280;3838;43.124;25.686;2024-02-04T03:03:54;99490.97;;;19.19;47.29
7594;BME280;3838;43.124;25.686;2024-02-04T03:06:19;99484.06;;;19.17;47.13
7594;BME280;3838;43.124;25.686;2024-02-04T03:08:45;99487.53;;;19.19;47.04
7594;BME280;3838;43.124;25.686;2024-02-04T03:11:10;99504.56;;;19.18;47.36
7594;BME280;3838;43.124;25.686;2024-02-04T03:13:38;99490.91;;;19.18;47.43
7594;BME280;3838;43.124;25.686;2024-02-04T03:16:09;99490.91;;;19.18;46.94
7594;BME280;3838;43.124;25.686;2024-02-04T03:18:34;99498.59;;;19.18;47.58
7594;BME280;3838;43.124;25.686;2024-02-04T03:21:00;99502.00;;;19.18;47.04
7594;BME280;3838;43.124;25.686;2024-02-04T03:23:25;99493.47;;;19.18;47.42
7594;BME280;3838;43.124;25.686;2024-02-04T03:25:50;99496.03;;;19.18;47.00
7594;BME280;3838;43.124;25.686;2024-02-04T03:28:16;99492.59;;;19.17;47.06
7594;BME280;3838;43.124;25.686;2024-02-04T03:30:41;99490.06;;;19.17;47.35
7594;BME280;3838;43.124;25.686;2024-02-04T03:33:06;99490.97;;;19.19;47.48
7594;BME280;3838;43.124;25.686;2024-02-04T03:35:32;99481.56;;;19.18;47.29
7594;BME280;3838;43.124;25.686;2024-02-04T03:38:01;99499.53;;;19.21;47.20
7594;BME280;3838;43.124;25.686;2024-02-04T03:40:26;99489.22;;;19.18;47.54
7594;BME280;3838;43.124;25.686;2024-02-04T03:42:52;99491.84;;;19.20;47.68
7594;BME280;3838;43.124;25.686;2024-02-04T03:45:17;99488.38;;;19.18;47.50
7594;BME280;3838;43.124;25.686;2024-02-04T03:47:42;99495.16;;;19.17;47.56
7594;BME280;3838;43.124;25.686;2024-02-04T03:50:08;99504.56;;;19.18;47.58
7594;BME280;3838;43.124;25.686;2024-02-04T03:52:34;99508.78;;;19.18;47.43
7594;BME280;3838;43.124;25.686;2024-02-04T03:54:59;99511.31;;;19.16;47.30
7594;BME280;3838;43.124;25.686;2024-02-04T03:57:25;99498.50;;;19.14;47.50
7594;BME280;3838;43.124;25.686;2024-02-04T03:59:50;99494.25;;;19.15;47.84
7594;BME280;3838;43.124;25.686;2024-02-04T04:02:15;99495.13;;;19.16;47.41
7594;BME280;3838;43.124;25.686;2024-02-04T04:04:41;99495.88;;;19.13;47.82
7594;BME280;3838;43.124;25.686;2024-02-04T04:07:12;99489.97;;;19.14;47.57
7594;BME280;3838;43.124;25.686;2024-02-04T04:09:38;99491.59;;;19.12;47.70
7594;BME280;3838;43.124;25.686;2024-02-04T04:12:03;99494.16;;;19.12;47.80
7594;BME280;3838;43.124;25.686;2024-02-04T04:14:29;99489.06;;;19.12;47.66
7594;BME280;3838;43.124;25.686;2024-02-04T04:16:54;99477.09;;;19.11;47.67
7594;BME280;3838;43.124;25.686;2024-02-04T04:19:20;99478.84;;;19.12;47.56
7594;BME280;3838;43.124;25.686;2024-02-04T04:21:45;99473.69;;;19.10;47.80
7594;BME280;3838;43.124;25.686;2024-02-04T04:24:10;99478.84;;;19.12;47.58
7594;BME280;3838;43.124;25.686;2024-02-04T04:26:36;99484.75;;;19.11;47.73
7594;BME280;3838;43.124;25.686;2024-02-04T04:29:02;99493.28;;;19.11;47.60
7594;BME280;3838;43.124;25.686;2024-02-04T04:31:27;99494.16;;;19.12;48.10
7594;BME280;3838;43.124;25.686;2024-02-04T04:33:54;99491.59;;;19.12;47.79
7594;BME280;3838;43.124;25.686;2024-02-04T04:36:19;99482.22;;;19.11;47.79
7594;BME280;3838;43.124;25.686;2024-02-04T04:38:44;99478.75;;;19.09;47.58
7594;BME280;3838;43.124;25.686;2024-02-04T04:41:10;99488.06;;;19.07;47.79
7594;BME280;3838;43.124;25.686;2024-02-04T04:43:38;99485.59;;;19.10;48.01
7594;BME280;3838;43.124;25.686;2024-02-04T04:46:04;99505.19;;;19.11;47.95
7594;BME280;3838;43.124;25.686;2024-02-04T04:48:29;99495.81;;;19.10;47.60
7594;BME280;3838;43.124;25.686;2024-02-04T04:50:54;99496.66;;;19.10;48.01
7594;BME280;3838;43.124;25.686;2024-02-04T04:53:20;99498.34;;;19.10;47.92
7594;BME280;3838;43.124;25.686;2024-02-04T04:55:45;99489.81;;;19.09;48.05
7594;BME280;3838;43.124;25.686;2024-02-04T04:58:10;99488.09;;;19.08;48.10
7594;BME280;3838;43.124;25.686;2024-02-04T05:00:36;99507.75;;;19.11;48.01
7594;BME280;3838;43.124;25.686;2024-02-04T05:03:01;99511.13;;;19.10;48.11
7594;BME280;3838;43.124;25.686;2024-02-04T05:05:27;99506.84;;;19.09;47.85
7594;BME280;3838;43.124;25.686;2024-02-04T05:07:52;99504.28;;;19.09;47.88
7594;BME280;3838;43.124;25.686;2024-02-04T05:10:17;99511.13;;;19.10;47.92
7594;BME280;3838;43.124;25.686;2024-02-04T05:12:43;99511.94;;;19.09;47.83
7594;BME280;3838;43.124;25.686;2024-02-04T05:15:08;99508.53;;;19.08;48.09
7594;BME280;3838;43.124;25.686;2024-02-04T05:17:34;99516.19;;;19.08;47.99
7594;BME280;3838;43.124;25.686;2024-02-04T05:20:00;99511.03;;;19.07;48.03
7594;BME280;3838;43.124;25.686;2024-02-04T05:22:27;99504.25;;;19.07;48.15
7594;BME280;3838;43.124;25.686;2024-02-04T05:24:53;99505.91;;;19.07;48.16
7594;BME280;3838;43.124;25.686;2024-02-04T05:27:18;99501.63;;;19.06;48.16
7594;BME280;3838;43.124;25.686;2024-02-04T05:29:43;99502.50;;;19.06;48.13
7594;BME280;3838;43.124;25.686;2024-02-04T05:32:10;99493.16;;;19.07;48.22
7594;BME280;3838;43.124;25.686;2024-02-04T05:34:37;99493.88;;;19.03;48.18
7594;BME280;3838;43.124;25.686;2024-02-04T05:37:02;99499.09;;;19.06;48.24
7594;BME280;3838;43.124;25.686;2024-02-04T05:39:28;99505.09;;;19.08;48.32
7594;BME280;3838;43.124;25.686;2024-02-04T05:41:53;99511.03;;;19.07;48.21
7594;BME280;3838;43.124;25.686;2024-02-04T05:44:19;99505.84;;;19.04;48.46
7594;BME280;3838;43.124;25.686;2024-02-04T05:46:44;99503.38;;;19.07;48.34
7594;BME280;3838;43.124;25.686;2024-02-04T05:49:10;99504.19;;;19.06;48.22
7594;BME280;3838;43.124;25.686;2024-02-04T05:51:39;99497.34;;;19.05;47.96
7594;BME280;3838;43.124;25.686;2024-02-04T05:54:05;99509.28;;;19.06;48.08
7594;BME280;3838;43.124;25.686;2024-02-04T05:56:31;99512.66;;;19.05;48.51
7594;BME280;3838;43.124;25.686;2024-02-04T05:58:56;99519.47;;;19.04;48.16
7594;BME280;3838;43.124;25.686;2024-02-04T06:01:22;99524.63;;;19.06;48.23
7594;BME280;3838;43.124;25.686;2024-02-04T06:03:47;99514.41;;;19.06;48.14
7594;BME280;3838;43.124;25.686;2024-02-04T06:06:17;99523.78;;;19.07;48.28
7594;BME280;3838;43.124;25.686;2024-02-04T06:08:45;99522.06;;;19.06;48.16
7594;BME280;3838;43.124;25.686;2024-02-04T06:11:12;99514.41;;;19.06;48.44
7594;BME280;3838;43.124;25.686;2024-02-04T06:13:42;99522.78;;;19.02;48.36
7594;BME280;3838;43.124;25.686;2024-02-04T06:16:07;99528.84;;;19.05;48.27
7594;BME280;3838;43.124;25.686;2024-02-04T06:18:34;99516.91;;;19.04;48.42
7594;BME280;3838;43.124;25.686;2024-02-04T06:21:00;99517.78;;;19.05;48.44
7594;BME280;3838;43.124;25.686;2024-02-04T06:23:25;99516.91;;;19.04;48.39
7594;BME280;3838;43.124;25.686;2024-02-04T06:25:51;99514.31;;;19.03;48.64
7594;BME280;3838;43.124;25.686;2024-02-04T06:28:16;99516.03;;;19.04;48.13
7594;BME280;3838;43.124;25.686;2024-02-04T06:30:41;99520.28;;;19.03;48.12
7594;BME280;3838;43.124;25.686;2024-02-04T06:33:07;99514.31;;;19.03;48.52
7594;BME280;3838;43.124;25.686;2024-02-04T06:35:32;99516.00;;;19.02;48.42
7594;BME280;3838;43.124;25.686;2024-02-04T06:37:58;99513.44;;;19.02;48.60
7594;BME280;3838;43.124;25.686;2024-02-04T06:40:23;99515.13;;;19.02;48.39
7594;BME280;3838;43.124;25.686;2024-02-04T06:42:49;99517.63;;;19.00;48.56
7594;BME280;3838;43.124;25.686;2024-02-04T06:45:14;99521.91;;;19.01;48.68
7594;BME280;3838;43.124;25.686;2024-02-04T06:47:43;99510.81;;;18.99;48.49
7594;BME280;3838;43.124;25.686;2024-02-04T06:50:09;99521.91;;;19.01;48.52
7594;BME280;3838;43.124;25.686;2024-02-04T06:52:39;99521.06;;;19.01;48.47
7594;BME280;3838;43.124;25.686;2024-02-04T06:55:05;99524.47;;;19.01;48.57
7594;BME280;3838;43.124;25.686;2024-02-04T06:57:30;99524.34;;;18.97;49.00
7594;BME280;3838;43.124;25.686;2024-02-04T06:59:56;99523.56;;;18.99;49.10
7594;BME280;3838;43.124;25.686;2024-02-04T07:02:21;99523.56;;;18.99;48.84
7594;BME280;3838;43.124;25.686;2024-02-04T07:04:46;99527.03;;;19.01;49.14
7594;BME280;3838;43.124;25.686;2024-02-04T07:07:12;99542.34;;;19.01;48.93
7594;BME280;3838;43.124;25.686;2024-02-04T07:09:37;99534.63;;;19.00;49.07
7594;BME280;3838;43.124;25.686;2024-02-04T07:12:03;99537.19;;;19.00;49.36
7594;BME280;3838;43.124;25.686;2024-02-04T07:14:28;99538.00;;;18.99;49.01
7594;BME280;3838;43.124;25.686;2024-02-04T07:16:53;99542.25;;;18.98;49.03
7594;BME280;3838;43.124;25.686;2024-02-04T07:19:19;99551.66;;;18.99;49.02
7594;BME280;3838;43.124;25.686;2024-02-04T07:21:44;99539.66;;;18.97;48.94
7594;BME280;3838;43.124;25.686;2024-02-04T07:24:10;99540.53;;;18.97;48.63
7594;BME280;3838;43.124;25.686;2024-02-04T07:26:35;99533.69;;;18.96;48.87
7594;BME280;3838;43.124;25.686;2024-02-04T07:29:00;99538.75;;;18.95;48.74
7594;BME280;3838;43.124;25.686;2024-02-04T07:31:26;99537.91;;;18.96;48.89
7594;BME280;3838;43.124;25.686;2024-02-04T07:33:51;99545.56;;;18.96;48.90
7594;BME280;3838;43.124;25.686;2024-02-04T07:36:16;99534.44;;;18.94;48.63
7594;BME280;3838;43.124;25.686;2024-02-04T07:38:42;99542.97;;;18.94;48.84
7594;BME280;3838;43.124;25.686;2024-02-04T07:41:07;99545.56;;;18.96;48.48
7594;BME280;3838;43.124;25.686;2024-02-04T07:43:32;99527.66;;;18.94;48.25
7594;BME280;3838;43.124;25.686;2024-02-04T07:45:58;99536.19;;;18.95;49.05
7594;BME280;3838;43.124;25.686;2024-02-04T07:48:23;99542.13;;;18.94;48.49
7594;BME280;3838;43.124;25.686;2024-02-04T07:50:49;99549.78;;;18.94;48.49
7594;BME280;3838;43.124;25.686;2024-02-04T07:53:14;99545.53;;;18.94;48.78
7594;BME280;3838;43.124;25.686;2024-02-04T07:55:39;99542.94;;;18.93;48.71
7594;BME280;3838;43.124;25.686;2024-02-04T07:58:05;99538.66;;;18.92;48.85
7594;BME280;3838;43.124;25.686;2024-02-04T08:00:30;99541.19;;;18.92;48.49
7594;BME280;3838;43.124;25.686;2024-02-04T08:02:56;99533.53;;;18.92;48.63
7594;BME280;3838;43.124;25.686;2024-02-04T08:05:21;99527.63;;;18.93;48.77
7594;BME280;3838;43.124;25.686;2024-02-04T08:07:46;99537.81;;;18.93;48.72
7594;BME280;3838;43.124;25.686;2024-02-04T08:10:12;99535.22;;;18.91;48.27
7594;BME280;3838;43.124;25.686;2024-02-04T08:12:37;99523.31;;;18.92;48.36
7594;BME280;3838;43.124;25.686;2024-02-04T08:15:03;99516.53;;;18.92;48.57
7594;BME280;3838;43.124;25.686;2024-02-04T08:17:30;99519.91;;;18.91;48.70
7594;BME280;3838;43.124;25.686;2024-02-04T08:19:56;99524.16;;;18.91;48.73
7594;BME280;3838;43.124;25.686;2024-02-04T08:22:22;99514.81;;;18.91;48.77
7594;BME280;3838;43.124;25.686;2024-02-04T08:24:47;99513.13;;;18.92;48.29
7594;BME280;3838;43.124;25.686;2024-02-04T08:27:13;99516.53;;;18.92;48.67
7594;BME280;3838;43.124;25.686;2024-02-04T08:29:41;99516.53;;;18.92;48.67
7594;BME280;3838;43.124;25.686;2024-02-04T08:32:07;99510.56;;;18.92;48.33
7594;BME280;3838;43.124;25.686;2024-02-04T08:34:33;99514.84;;;18.93;48.47
7594;BME280;3838;43.124;25.686;2024-02-04T08:36:58;99520.78;;;18.92;48.85
7594;BME280;3838;43.124;25.686;2024-02-04T08:39:23;99522.50;;;18.93;48.39
7594;BME280;3838;43.124;25.686;2024-02-04T08:41:51;99519.97;;;18.93;48.94
7594;BME280;3838;43.124;25.686;2024-02-04T08:44:16;99536.91;;;18.91;48.57
7594;BME280;3838;43.124;25.686;2024-02-04T08:46:42;99530.13;;;18.91;48.47
7594;BME280;3838;43.124;25.686;2024-02-04T08:49:07;99541.19;;;18.92;48.91
7594;BME280;3838;43.124;25.686;2024-02-04T08:51:32;99531.03;;;18.93;48.78
7594;BME280;3838;43.124;25.686;2024-02-04T08:53:58;99538.66;;;18.92;48.84
7594;BME280;3838;43.124;25.686;2024-02-04T08:56:23;99528.38;;;18.90;48.37
7594;BME280;3838;43.124;25.686;2024-02-04T08:58:49;99539.47;;;18.91;48.71
7594;BME280;3838;43.124;25.686;2024-02-04T09:01:14;99548.84;;;18.92;48.49
7594;BME280;3838;43.124;25.686;2024-02-04T09:03:39;99514.75;;;18.90;48.74
7594;BME280;3838;43.124;25.686;2024-02-04T09:06:05;99531.81;;;18.91;48.62
7594;BME280;3838;43.124;25.686;2024-02-04T09:08:30;99528.38;;;18.90;48.91
7594;BME280;3838;43.124;25.686;2024-02-04T09:10:56;99527.44;;;18.87;48.48
7594;BME280;3838;43.124;25.686;2024-02-04T09:13:22;99533.44;;;18.89;48.61
7594;BME280;3838;43.124;25.686;2024-02-04T09:15:49;99536.00;;;18.89;48.89
7594;BME280;3838;43.124;25.686;2024-02-04T09:18:14;99536.00;;;18.89;48.59
7594;BME280;3838;43.124;25.686;2024-02-04T09:20:40;99524.06;;;18.88;48.70
7594;BME280;3838;43.124;25.686;2024-02-04T09:23:05;99526.59;;;18.88;48.54
7594;BME280;3838;43.124;25.686;2024-02-04T09:25:31;99529.66;;;18.76;48.78
7594;BME280;3838;43.124;25.686;2024-02-04T09:27:56;99543.78;;;18.66;47.53
7594;BME280;3838;43.124;25.686;2024-02-04T09:30:21;99549.47;;;18.59;47.86
7594;BME280;3838;43.124;25.686;2024-02-04T09:32:47;99545.16;;;18.57;47.43
7594;BME280;3838;43.124;25.686;2024-02-04T09:35:13;99548.31;;;18.49;47.59
7594;BME280;3838;43.124;25.686;2024-02-04T09:37:38;99539.59;;;18.43;47.80
7594;BME280;3838;43.124;25.686;2024-02-04T09:40:04;99540.72;;;18.51;47.58
7594;BME280;3838;43.124;25.686;2024-02-04T09:42:29;99535.00;;;18.58;47.56
7594;BME280;3838;43.124;25.686;2024-02-04T09:44:57;99542.81;;;18.63;47.94
7594;BME280;3838;43.124;25.686;2024-02-04T09:47:23;99539.69;;;18.71;47.65
7594;BME280;3838;43.124;25.686;2024-02-04T09:49:48;99541.53;;;18.75;47.93
7594;BME280;3838;43.124;25.686;2024-02-04T09:52:18;99539.91;;;18.77;48.14
7594;BME280;3838;43.124;25.686;2024-02-04T09:54:55;99539.09;;;18.78;48.12
7594;BME280;3838;43.124;25.686;2024-02-04T09:57:22;99530.69;;;18.83;48.15
7594;BME280;3838;43.124;25.686;2024-02-04T09:59:48;99528.16;;;18.83;47.92
7594;BME280;3838;43.124;25.686;2024-02-04T10:02:13;99533.34;;;18.86;48.50
7594;BME280;3838;43.124;25.686;2024-02-04T10:04:39;99536.00;;;18.89;48.50
7594;BME280;3838;43.124;25.686;2024-02-04T10:07:04;99536.03;;;18.90;48.53
7594;BME280;3838;43.124;25.686;2024-02-04T10:09:29;99540.38;;;18.93;48.29
7594;BME280;3838;43.124;25.686;2024-02-04T10:11:56;99525.09;;;18.94;48.59
7594;BME280;3838;43.124;25.686;2024-02-04T10:14:22;99525.16;;;18.96;48.31
7594;BME280;3838;43.124;25.686;2024-02-04T10:16:47;99525.19;;;18.97;48.36
7594;BME280;3838;43.124;25.686;2024-02-04T10:19:13;99533.81;;;19.01;48.86
7594;BME280;3838;43.124;25.686;2024-02-04T10:21:38;99534.63;;;19.00;48.55
7594;BME280;3838;43.124;25.686;2024-02-04T10:24:06;99519.13;;;18.94;48.79
7594;BME280;3838;43.124;25.686;2024-02-04T10:26:31;99531.19;;;18.98;48.84
7594;BME280;3838;43.124;25.686;2024-02-04T10:28:59;99528.63;;;18.98;48.95
7594;BME280;3838;43.124;25.686;2024-02-04T10:31:25;99524.53;;;19.03;49.37
7594;BME280;3838;43.124;25.686;2024-02-04T10:33:51;99516.09;;;19.05;48.75
7594;BME280;3838;43.124;25.686;2024-02-04T10:36:17;99522.84;;;19.03;49.54
7594;BME280;3838;43.124;25.686;2024-02-04T10:38:43;99521.09;;;19.02;49.91
7594;BME280;3838;43.124;25.686;2024-02-04T10:41:12;99528.00;;;19.05;49.49
7594;BME280;3838;43.124;25.686;2024-02-04T10:43:42;99519.59;;;19.09;49.72
7594;BME280;3838;43.124;25.686;2024-02-04T10:46:09;99512.00;;;19.10;49.88
7594;BME280;3838;43.124;25.686;2024-02-04T10:48:38;99512.91;;;19.12;50.05
7594;BME280;3838;43.124;25.686;2024-02-04T10:51:15;99504.47;;;19.15;50.39
7594;BME280;3838;43.124;25.686;2024-02-04T10:53:42;99508.78;;;19.18;50.25
7594;BME280;3838;43.124;25.686;2024-02-04T10:56:14;99512.25;;;19.20;50.26
7594;BME280;3838;43.124;25.686;2024-02-04T10:58:43;99510.63;;;19.22;50.50
7594;BME280;3838;43.124;25.686;2024-02-04T11:01:10;99511.47;;;19.22;50.20
7594;BME280;3838;43.124;25.686;2024-02-04T11:03:36;99509.78;;;19.23;50.46
7594;BME280;3838;43.124;25.686;2024-02-04T11:06:03;99503.00;;;19.23;50.29
7594;BME280;3838;43.124;25.686;2024-02-04T11:08:29;99494.56;;;19.26;50.44
7594;BME280;3838;43.124;25.686;2024-02-04T11:10:54;99502.22;;;19.26;50.86
7594;BME280;3838;43.124;25.686;2024-02-04T11:13:20;99494.59;;;19.27;50.46
7594;BME280;3838;43.124;25.686;2024-02-04T11:15:49;99491.22;;;19.28;50.59
7594;BME280;3838;43.124;25.686;2024-02-04T11:18:28;99492.97;;;19.29;50.97
7594;BME280;3838;43.124;25.686;2024-02-04T11:24:13;99492.19;;;19.32;50.68
7594;BME280;3838;43.124;25.686;2024-02-04T11:26:44;99502.41;;;19.32;50.54
7594;BME280;3838;43.124;25.686;2024-02-04T11:29:11;99496.47;;;19.33;50.70
7594;BME280;3838;43.124;25.686;2024-02-04T11:31:38;99488.81;;;19.33;50.84
7594;BME280;3838;43.124;25.686;2024-02-04T11:34:08;99480.38;;;19.35;50.59
7594;BME280;3838;43.124;25.686;2024-02-04T11:36:38;99465.81;;;19.33;50.62
7594;BME280;3838;43.124;25.686;2024-02-04T11:39:12;99466.78;;;19.36;50.59
7594;BME280;3838;43.124;25.686;2024-02-04T11:41:49;99468.50;;;19.37;51.00
7594;BME280;3838;43.124;25.686;2024-02-04T11:44:25;99449.81;;;19.38;50.97
7594;BME280;3838;43.124;25.686;2024-02-04T11:46:51;99441.31;;;19.39;51.18
7594;BME280;3838;43.124;25.686;2024-02-04T11:49:18;99456.63;;;19.39;50.85
7594;BME280;3838;43.124;25.686;2024-02-04T11:51:48;99448.09;;;19.39;50.91
7594;BME280;3838;43.124;25.686;2024-02-04T11:54:17;99447.31;;;19.41;51.01
7594;BME280;3838;43.124;25.686;2024-02-04T11:56:49;99437.84;;;19.37;51.03
7594;BME280;3838;43.124;25.686;2024-02-04T11:59:20;99443.91;;;19.41;50.67
7594;BME280;3838;43.124;25.686;2024-02-04T12:01:48;99443.91;;;19.41;50.88
7594;BME280;3838;43.124;25.686;2024-02-04T12:04:15;99432.78;;;19.39;50.88
7594;BME280;3838;43.124;25.686;2024-02-04T12:06:42;99442.22;;;19.41;50.89
7594;BME280;3838;43.124;25.686;2024-02-04T12:09:08;99455.84;;;19.42;50.76
7594;BME280;3838;43.124;25.686;2024-02-04T12:11:36;99460.94;;;19.40;51.04
7594;BME280;3838;43.124;25.686;2024-02-04T12:14:06;99452.47;;;19.43;51.24
7594;BME280;3838;43.124;25.686;2024-02-04T12:16:32;99457.63;;;19.44;51.16
7594;BME280;3838;43.124;25.686;2024-02-04T12:19:00;99462.75;;;19.44;50.86
7594;BME280;3838;43.124;25.686;2024-02-04T12:21:26;99456.84;;;19.47;51.57
7594;BME280;3838;43.124;25.686;2024-02-04T12:23:51;99455.81;;;19.40;51.00
7594;BME280;3838;43.124;25.686;2024-02-04T12:26:17;99448.19;;;19.42;51.42
7594;BME280;3838;43.124;25.686;2024-02-04T12:28:43;99441.41;;;19.42;51.78
7594;BME280;3838;43.124;25.686;2024-02-04T12:31:19;99440.75;;;19.50;51.34
7594;BME280;3838;43.124;25.686;2024-02-04T12:33:55;99437.25;;;19.46;51.73
7594;BME280;3838;43.124;25.686;2024-02-04T12:36:26;99428.66;;;19.44;52.08
7594;BME280;3838;43.124;25.686;2024-02-04T12:38:59;99429.50;;;19.43;52.07
7594;BME280;3838;43.124;25.686;2024-02-04T12:41:26;99431.13;;;19.41;52.10
7594;BME280;3838;43.124;25.686;2024-02-04T12:43:54;99429.22;;;19.34;51.90
7594;BME280;3838;43.124;25.686;2024-02-04T12:46:21;99431.09;;;19.39;52.15
7594;BME280;3838;43.124;25.686;2024-02-04T12:48:57;99428.66;;;19.44;52.01
7594;BME280;3838;43.124;25.686;2024-02-04T12:51:29;99426.97;;;19.44;51.69
7594;BME280;3838;43.124;25.686;2024-02-04T12:54:07;99423.59;;;19.45;51.60
7594;BME280;3838;43.124;25.686;2024-02-04T12:56:59;99421.63;;;19.35;49.70
7594;BME280;3838;43.124;25.686;2024-02-04T12:59:29;99409.91;;;19.12;48.98
7594;BME280;3838;43.124;25.686;2024-02-04T13:02:00;99408.28;;;19.16;48.20
7594;BME280;3838;43.124;25.686;2024-02-04T13:07:00;99412.38;;;19.09;47.14
7594;BME280;3838;43.124;25.686;2024-02-04T13:09:25;99405.53;;;19.08;46.84
7594;BME280;3838;43.124;25.686;2024-02-04T13:11:51;99384.97;;;19.03;46.35
7594;BME280;3838;43.124;25.686;2024-02-04T13:14:16;99386.81;;;19.09;46.85
7594;BME280;3838;43.124;25.686;2024-02-04T13:16:42;99392.94;;;19.14;47.99
7594;BME280;3838;43.124;25.686;2024-02-04T13:19:08;99391.13;;;19.10;47.05